CYDA

Dawson City Airport

Dawson City, , Canada
METAR CYDA 160300Z 27003KT 190V310 20SM SCT055TCU SCT100 BKN210 17/08 A2979 RMK TCU3AC1CI2 CLIMAT 17.9/8.5/0.2 MM LAST STFD OBS/NXT 161300Z SLP101 DENSITY ALT 1900FT
Observed Flight Rules
Aug-16 @ 03:00 UTC (3 hours ago) Visual Flight Rules
Wind Visibility Clouds
270° at 3 knots 20 miles
  • Scattered at 5,500' AGL
  • Scattered at 10,000' AGL
  • Broken at 21,000' AGL
Temperatures Readings
Current 17°C / 63°F
Dewpoint 8°C / 46°F
Humidity 56%
Altimeter 29.79" Hg
Pressure 1010.1 hPa
Elevation 369
METAR CYDA 160300Z 27003KT 190V310 20SM SCT055TCU SCT100 BKN210 17/08 A2979 RMK TCU3AC1CI2 CLIMAT 17.9/8.5/0.2 MM LAST STFD OBS/NXT 161300Z SLP101 DENSITY ALT 1900FT
Observed Flight Rules
Aug-16 @ 03:00 UTC
(3 hours ago)
VFR
Wind Visibility
270° at 3 knots 20 miles
Clouds
  • Scattered at 5,500' AGL
  • Scattered at 10,000' AGL
  • Broken at 21,000' AGL
Temperature Dewpoint
17°C / 63°F 8°C / 46°F
Humidity Altimeter Pressure
56% 29.79" Hg 1010.1 hPa